createdAt,value
2023-01-20T00:01:39.237Z,8.43
2023-01-20T00:04:10.193Z,5.70
2023-01-20T00:06:40.852Z,7.53
2023-01-20T00:09:15.443Z,7.67
2023-01-20T00:11:46.099Z,9.10
2023-01-20T00:14:17.009Z,8.37
2023-01-20T00:16:48.076Z,7.77
2023-01-20T00:19:18.897Z,8.50
2023-01-20T00:21:49.527Z,7.43
2023-01-20T00:24:20.160Z,9.60
2023-01-20T00:26:50.898Z,9.23
2023-01-20T00:29:21.520Z,8.23
2023-01-20T00:31:52.217Z,6.83
2023-01-20T00:34:22.873Z,10.90
2023-01-20T00:36:53.536Z,9.20
2023-01-20T00:39:24.541Z,9.17
2023-01-20T00:41:55.117Z,9.37
2023-01-20T00:44:25.885Z,8.80
2023-01-20T00:46:56.536Z,9.43
2023-01-20T00:49:27.246Z,7.77
2023-01-20T00:51:57.941Z,6.93
2023-01-20T00:54:28.700Z,6.30
2023-01-20T00:56:59.752Z,8.87
2023-01-20T00:59:30.396Z,8.43
2023-01-20T01:02:01.153Z,9.63
2023-01-20T01:04:32.163Z,6.13
2023-01-20T01:07:02.736Z,6.57
2023-01-20T01:09:33.888Z,5.97
2023-01-20T01:12:04.632Z,6.77
2023-01-20T01:14:35.782Z,7.47
2023-01-20T01:17:06.381Z,6.63
2023-01-20T01:19:37.138Z,5.97
2023-01-20T01:22:07.737Z,4.73
2023-01-20T01:24:38.393Z,6.27
2023-01-20T01:27:09.034Z,6.53
2023-01-20T01:29:40.118Z,6.27
2023-01-20T01:32:11.202Z,6.13
2023-01-20T01:34:42.092Z,9.10
2023-01-20T01:37:14.217Z,7.87
2023-01-20T01:39:44.879Z,6.03
2023-01-20T01:42:16.479Z,8.07
2023-01-20T01:45:25.732Z,5.83
2023-01-20T01:48:02.651Z,5.90
2023-01-20T01:50:39.096Z,5.53
2023-01-20T01:53:11.548Z,8.30
2023-01-20T01:55:45.353Z,7.00
2023-01-20T01:58:18.914Z,6.70
2023-01-20T02:00:50.340Z,6.77
2023-01-20T02:03:21.376Z,6.03
2023-01-20T02:05:54.139Z,5.77
2023-01-20T02:08:26.531Z,6.37
2023-01-20T02:10:57.178Z,6.73
2023-01-20T02:13:27.914Z,4.77
2023-01-20T02:16:04.386Z,7.10
2023-01-20T02:18:45.199Z,6.27
2023-01-20T02:21:57.045Z,5.57
2023-01-20T02:25:29.084Z,7.17
2023-01-20T02:28:22.069Z,8.20
2023-01-20T02:31:18.260Z,5.60
2023-01-20T02:33:52.210Z,5.57
2023-01-20T02:36:26.285Z,7.07
2023-01-20T02:39:01.118Z,5.83
2023-01-20T02:41:37.045Z,5.83
2023-01-20T02:44:11.992Z,6.07
2023-01-20T02:46:45.716Z,7.63
2023-01-20T02:49:19.617Z,6.57
2023-01-20T02:51:53.460Z,6.97
2023-01-20T02:54:26.219Z,6.97
2023-01-20T02:56:58.222Z,6.90
2023-01-20T02:59:32.382Z,5.90
2023-01-20T03:02:06.029Z,7.73
2023-01-20T03:04:40.045Z,6.17
2023-01-20T03:07:13.172Z,6.47
2023-01-20T03:09:46.892Z,5.97
2023-01-20T03:12:22.412Z,7.30
2023-01-20T03:14:54.551Z,6.90
2023-01-20T03:17:25.628Z,5.95
2023-01-20T03:19:56.365Z,6.40
2023-01-20T03:22:27.129Z,6.03
2023-01-20T03:24:59.972Z,6.57
2023-01-20T03:27:30.851Z,6.13
2023-01-20T03:30:01.442Z,5.27
2023-01-20T03:32:32.489Z,6.50
2023-01-20T03:35:03.456Z,6.30
2023-01-20T03:37:34.124Z,5.97
2023-01-20T03:40:05.128Z,7.77
2023-01-20T03:42:38.807Z,6.63
2023-01-20T03:45:13.825Z,9.60
2023-01-20T03:47:55.610Z,7.40
2023-01-20T03:50:34.074Z,4.90
2023-01-20T03:53:09.702Z,6.93
2023-01-20T03:55:43.429Z,6.00
2023-01-20T03:58:17.016Z,5.73
2023-01-20T04:00:50.913Z,6.97
2023-01-20T04:03:24.948Z,5.87
2023-01-20T04:05:57.219Z,5.30
2023-01-20T04:08:30.260Z,6.53
2023-01-20T04:11:04.286Z,6.43
2023-01-20T04:13:35.283Z,6.90
2023-01-20T04:16:08.614Z,5.87
2023-01-20T04:18:43.144Z,8.90
2023-01-20T04:21:16.980Z,8.57
2023-01-20T04:23:50.513Z,6.43
2023-01-20T04:26:21.214Z,7.10
2023-01-20T04:28:51.886Z,5.33
2023-01-20T04:31:30.635Z,5.10
2023-01-20T04:33:54.978Z,7.23
2023-01-20T04:36:25.817Z,8.17
2023-01-20T04:38:56.712Z,6.73
2023-01-20T04:41:27.419Z,5.37
2023-01-20T04:43:58.238Z,10.73
2023-01-20T04:46:28.976Z,6.20
2023-01-20T04:48:59.694Z,6.03
2023-01-20T04:51:30.324Z,9.77
2023-01-20T04:54:01.214Z,7.90
2023-01-20T04:56:31.957Z,5.93
2023-01-20T04:59:02.605Z,5.97
2023-01-20T05:01:33.442Z,10.07
2023-01-20T05:04:04.449Z,6.37
2023-01-20T05:06:35.524Z,7.30
2023-01-20T05:09:06.692Z,9.33
2023-01-20T05:11:37.476Z,8.43
2023-01-20T05:16:44.375Z,7.03
2023-01-20T05:19:15.680Z,9.47
2023-01-20T05:21:47.163Z,7.20
2023-01-20T05:24:17.974Z,11.27
2023-01-20T05:26:48.548Z,8.57
2023-01-20T05:29:19.302Z,8.37
2023-01-20T05:31:49.978Z,9.03
2023-01-20T05:34:20.755Z,9.20
2023-01-20T05:36:54.851Z,11.80
2023-01-20T05:39:25.478Z,12.07
2023-01-20T05:41:56.117Z,9.67
2023-01-20T05:44:29.246Z,11.63
2023-01-20T05:46:59.873Z,11.73
2023-01-20T05:49:30.534Z,12.37
2023-01-20T05:52:01.287Z,10.93
2023-01-20T05:54:31.986Z,11.27
2023-01-20T05:57:04.366Z,13.13
2023-01-20T05:59:35.080Z,21.93
2023-01-20T06:02:05.941Z,11.43
2023-01-20T06:04:36.875Z,13.27
2023-01-20T06:07:08.116Z,13.77
2023-01-20T06:09:38.863Z,15.60
2023-01-20T06:12:11.648Z,14.23
2023-01-20T06:14:42.572Z,16.77
2023-01-20T06:17:13.774Z,15.17
2023-01-20T06:19:44.816Z,14.60
2023-01-20T06:22:16.683Z,14.37
2023-01-20T06:24:47.529Z,12.73
2023-01-20T06:27:18.571Z,15.97
2023-01-20T06:29:51.031Z,15.43
2023-01-20T06:32:22.063Z,13.00
2023-01-20T06:34:53.208Z,13.33
2023-01-20T06:37:23.877Z,16.93
2023-01-20T06:39:54.639Z,14.03
2023-01-20T06:42:25.310Z,13.77
2023-01-20T06:44:56.093Z,16.07
2023-01-20T06:47:26.903Z,15.53
2023-01-20T06:52:35.938Z,13.63
2023-01-20T06:55:08.959Z,14.50
2023-01-20T06:57:39.586Z,14.70
2023-01-20T07:00:13.229Z,15.03
2023-01-20T07:02:43.926Z,15.67
2023-01-20T07:05:15.050Z,13.97
2023-01-20T07:07:47.691Z,15.00
2023-01-20T07:10:18.697Z,16.93
2023-01-20T07:12:49.307Z,17.03
2023-01-20T07:15:20.163Z,16.03
2023-01-20T07:17:50.956Z,14.10
2023-01-20T07:20:21.820Z,15.77
2023-01-20T07:22:52.519Z,15.00
2023-01-20T07:25:23.186Z,14.60
2023-01-20T07:27:53.934Z,15.80
2023-01-20T07:30:24.554Z,19.97
2023-01-20T07:32:56.254Z,16.27
2023-01-20T07:35:27.023Z,15.97
2023-01-20T07:37:57.962Z,19.23
2023-01-20T07:40:28.737Z,15.90
2023-01-20T07:42:59.365Z,16.67
2023-01-20T07:45:30.762Z,14.73
2023-01-20T07:48:03.035Z,16.43
2023-01-20T07:50:33.783Z,13.60
2023-01-20T07:53:04.430Z,17.10
2023-01-20T07:55:35.780Z,18.23
2023-01-20T07:58:06.432Z,20.60
2023-01-20T08:00:37.098Z,20.47
2023-01-20T08:03:07.731Z,15.40
2023-01-20T08:05:38.532Z,19.33
2023-01-20T08:08:09.194Z,16.97
2023-01-20T08:10:40.126Z,17.90
2023-01-20T08:13:11.447Z,17.83
2023-01-20T08:15:42.152Z,20.27
2023-01-20T08:18:12.757Z,16.53
2023-01-20T08:20:43.369Z,20.33
2023-01-20T08:23:14.064Z,18.03
2023-01-20T08:25:44.829Z,19.80
2023-01-20T08:28:15.623Z,14.73
2023-01-20T08:30:46.383Z,16.63
2023-01-20T08:33:17.363Z,15.77
2023-01-20T08:35:48.214Z,18.70
2023-01-20T08:38:18.806Z,57.13
2023-01-20T08:40:49.503Z,81.07
2023-01-20T08:43:20.075Z,25.80
2023-01-20T08:45:52.236Z,17.87
2023-01-20T08:48:24.241Z,15.40
2023-01-20T08:50:54.936Z,12.07
2023-01-20T08:53:26.458Z,12.93
2023-01-20T08:56:00.842Z,18.03
2023-01-20T08:58:32.190Z,18.20
2023-01-20T09:01:03.293Z,18.50
2023-01-20T09:03:34.112Z,17.93
2023-01-20T09:06:06.749Z,17.97
2023-01-20T09:08:38.266Z,14.70
2023-01-20T09:11:11.363Z,17.97
2023-01-20T09:13:42.700Z,13.20
2023-01-20T09:16:15.516Z,14.53
2023-01-20T09:18:46.521Z,14.57
2023-01-20T09:21:17.194Z,14.67
2023-01-20T09:23:48.421Z,14.57
2023-01-20T09:26:34.336Z,12.13
2023-01-20T09:28:51.361Z,14.20
2023-01-20T09:31:22.135Z,12.00
2023-01-20T09:33:52.851Z,14.33
2023-01-20T09:36:23.555Z,13.53
2023-01-20T09:39:11.816Z,12.67
2023-01-20T09:44:33.875Z,10.67
2023-01-20T09:47:22.207Z,13.30
2023-01-20T09:50:38.482Z,7.47
2023-01-20T09:53:39.467Z,10.07
2023-01-20T09:56:13.632Z,10.73
2023-01-20T09:58:48.606Z,14.67
2023-01-20T10:01:24.579Z,14.07
2023-01-20T10:03:58.587Z,13.50
2023-01-20T10:06:32.454Z,13.30
2023-01-20T10:09:06.665Z,8.13
2023-01-20T10:11:41.829Z,12.03
2023-01-20T10:14:17.648Z,10.10
2023-01-20T10:16:52.458Z,11.60
2023-01-20T10:19:28.270Z,13.33
2023-01-20T10:22:05.340Z,13.67
2023-01-20T10:24:39.145Z,12.83
2023-01-20T10:27:09.809Z,9.87
2023-01-20T10:29:43.308Z,10.10
2023-01-20T10:34:58.295Z,12.03
2023-01-20T10:37:30.735Z,9.90
2023-01-20T10:40:04.530Z,8.10
2023-01-20T10:42:36.365Z,10.37
2023-01-20T10:45:13.841Z,10.13
2023-01-20T10:47:48.002Z,8.43
2023-01-20T10:50:47.208Z,7.47
2023-01-20T10:53:48.984Z,8.33
2023-01-20T10:59:27.852Z,7.07
2023-01-20T11:02:11.342Z,8.20
2023-01-20T11:04:35.935Z,7.73
2023-01-20T11:07:08.874Z,9.20
2023-01-20T11:09:40.091Z,7.83
2023-01-20T11:12:17.221Z,7.77
2023-01-20T11:14:48.353Z,4.70
2023-01-20T11:17:21.373Z,7.77
2023-01-20T11:19:54.559Z,6.07
2023-01-20T11:22:31.039Z,6.23
2023-01-20T11:25:04.247Z,7.20
2023-01-20T11:27:38.577Z,6.53
2023-01-20T11:30:15.953Z,6.43
2023-01-20T11:32:46.939Z,6.23
2023-01-20T11:35:26.888Z,5.03
2023-01-20T11:37:57.517Z,6.37
2023-01-20T11:40:30.128Z,6.43
2023-01-20T11:43:00.840Z,4.73
2023-01-20T11:45:34.770Z,6.57
2023-01-20T11:48:19.447Z,30.37
2023-01-20T11:50:53.332Z,7.07
2023-01-20T11:53:26.733Z,6.13
2023-01-20T11:56:01.089Z,6.53
2023-01-20T11:58:34.191Z,6.27
2023-01-20T12:01:07.850Z,6.60
2023-01-20T12:07:00.942Z,7.73
2023-01-20T12:09:34.739Z,7.03
2023-01-20T12:12:08.932Z,7.60
2023-01-20T12:14:43.879Z,8.37
2023-01-20T12:17:23.052Z,11.53
2023-01-20T12:20:07.738Z,7.73
2023-01-20T12:22:44.116Z,8.90
2023-01-20T12:25:26.124Z,7.80
2023-01-20T12:28:00.037Z,7.10
2023-01-20T12:30:48.722Z,7.07
2023-01-20T12:33:28.444Z,3.87
2023-01-20T12:36:42.830Z,4.77
2023-01-20T12:39:28.470Z,5.93
2023-01-20T12:42:57.926Z,5.80
2023-01-20T12:45:37.301Z,6.07
2023-01-20T12:48:17.966Z,6.33
2023-01-20T12:51:01.106Z,6.83
2023-01-20T12:53:43.192Z,6.53
2023-01-20T12:56:19.158Z,14.67
2023-01-20T12:58:56.781Z,6.03
2023-01-20T13:01:55.329Z,4.87
2023-01-20T13:05:01.099Z,7.53
2023-01-20T13:10:50.309Z,10.30
2023-01-20T13:13:25.765Z,7.33
2023-01-20T13:16:00.120Z,7.10
2023-01-20T13:18:36.138Z,7.67
2023-01-20T13:21:07.178Z,8.27
2023-01-20T13:23:40.365Z,6.97
2023-01-20T13:26:11.239Z,5.77
2023-01-20T13:28:51.893Z,8.13
2023-01-20T13:31:40.601Z,5.73
2023-01-20T13:34:34.679Z,5.47
2023-01-20T13:37:27.827Z,5.50
2023-01-20T13:40:00.775Z,8.00
2023-01-20T13:43:00.907Z,8.20
2023-01-20T13:45:32.117Z,7.87
2023-01-20T13:48:24.246Z,6.03
2023-01-20T13:50:54.834Z,6.93
2023-01-20T13:53:29.993Z,7.10
2023-01-20T13:56:02.969Z,7.53
2023-01-20T13:58:35.080Z,7.13
2023-01-20T14:01:07.949Z,7.47
2023-01-20T14:03:40.293Z,6.50
2023-01-20T14:06:23.731Z,8.57
2023-01-20T14:08:54.386Z,6.23
2023-01-20T14:11:27.070Z,6.37
2023-01-20T14:13:59.707Z,5.40
2023-01-20T14:16:32.101Z,6.30
2023-01-20T14:21:44.006Z,7.33
2023-01-20T14:24:29.342Z,6.40
2023-01-20T14:27:12.790Z,5.70
2023-01-20T14:29:42.889Z,5.37
2023-01-20T14:32:22.576Z,4.50
2023-01-20T14:34:56.791Z,5.33
2023-01-20T14:37:30.617Z,9.00
2023-01-20T14:40:04.499Z,5.17
2023-01-20T14:42:36.433Z,4.43
2023-01-20T14:45:22.411Z,5.90
2023-01-20T14:47:53.499Z,4.30
2023-01-20T14:50:24.721Z,5.73
2023-01-20T14:52:56.427Z,6.73
2023-01-20T14:55:32.234Z,5.23
2023-01-20T14:58:04.835Z,6.00
2023-01-20T15:00:36.845Z,7.13
2023-01-20T15:03:11.976Z,7.03
2023-01-20T15:05:45.182Z,5.20
2023-01-20T15:08:26.502Z,4.90
2023-01-20T15:11:33.709Z,5.67
2023-01-20T15:14:14.460Z,5.13
2023-01-20T15:16:51.083Z,5.20
2023-01-20T15:19:33.574Z,7.47
2023-01-20T15:22:23.632Z,5.23
2023-01-20T15:24:55.271Z,7.10
2023-01-20T15:27:34.454Z,4.40
2023-01-20T15:30:16.463Z,6.70
2023-01-20T15:32:47.842Z,6.23
2023-01-20T15:35:22.505Z,5.03
2023-01-20T15:37:55.320Z,5.30
2023-01-20T15:40:27.122Z,5.27
2023-01-20T15:42:57.849Z,4.30
2023-01-20T15:45:28.593Z,5.83
2023-01-20T15:47:59.330Z,7.07
2023-01-20T15:50:31.367Z,6.77
2023-01-20T15:53:03.611Z,6.10
2023-01-20T15:55:34.367Z,8.83
2023-01-20T15:58:06.448Z,7.20
2023-01-20T16:00:38.227Z,7.23
2023-01-20T16:03:11.617Z,6.87
2023-01-20T16:05:42.413Z,7.73
2023-01-20T16:08:18.562Z,11.03
2023-01-20T16:10:49.984Z,7.73
2023-01-20T16:13:20.705Z,7.73
2023-01-20T16:15:52.508Z,12.07
2023-01-20T16:18:23.321Z,9.30
2023-01-20T16:20:54.012Z,8.90
2023-01-20T16:23:24.809Z,10.70
2023-01-20T16:25:56.792Z,9.00
2023-01-20T16:28:27.721Z,12.33
2023-01-20T16:30:58.376Z,9.30
2023-01-20T16:33:29.868Z,10.10
2023-01-20T16:36:00.649Z,11.67
2023-01-20T16:38:31.508Z,10.57
2023-01-20T16:43:43.469Z,7.53
2023-01-20T16:46:16.773Z,10.07
2023-01-20T16:48:47.620Z,8.43
2023-01-20T16:51:19.831Z,7.73
2023-01-20T16:53:51.095Z,8.83
2023-01-20T16:56:24.466Z,9.67
2023-01-20T16:58:57.915Z,8.50
2023-01-20T17:01:29.622Z,9.90
2023-01-20T17:04:01.573Z,8.60
2023-01-20T17:06:34.724Z,8.00
2023-01-20T17:09:07.189Z,9.43
2023-01-20T17:11:40.463Z,9.70
2023-01-20T17:14:12.327Z,11.43
2023-01-20T17:16:43.006Z,8.37
2023-01-20T17:19:16.126Z,9.37
2023-01-20T17:21:46.378Z,8.47
2023-01-20T17:24:17.415Z,7.73
2023-01-20T17:26:48.189Z,8.43
2023-01-20T17:29:20.516Z,7.57
2023-01-20T17:31:51.180Z,9.87
2023-01-20T17:34:22.873Z,8.17
2023-01-20T17:36:53.551Z,9.50
2023-01-20T17:39:24.214Z,9.30
2023-01-20T17:41:54.985Z,10.23
2023-01-20T17:44:25.706Z,8.38
2023-01-20T17:46:56.362Z,10.60
2023-01-20T17:49:27.320Z,10.17
2023-01-20T17:51:58.060Z,14.33
2023-01-20T17:54:28.879Z,10.67
2023-01-20T17:56:59.685Z,8.03
2023-01-20T17:59:30.353Z,13.80
2023-01-20T18:02:01.027Z,11.33
2023-01-20T18:04:32.426Z,9.77
2023-01-20T18:07:03.712Z,11.43
2023-01-20T18:09:35.286Z,10.73
2023-01-20T18:12:07.042Z,13.50
2023-01-20T18:14:38.784Z,11.87
2023-01-20T18:17:09.621Z,16.67
2023-01-20T18:19:40.848Z,11.37
2023-01-20T18:22:12.736Z,12.80
2023-01-20T18:24:43.477Z,13.30
2023-01-20T18:27:15.059Z,14.47
2023-01-20T18:29:45.797Z,18.77
2023-01-20T18:32:16.596Z,19.93
2023-01-20T18:34:47.370Z,14.87
2023-01-20T18:37:18.027Z,16.07
2023-01-20T18:42:28.154Z,17.20
2023-01-20T18:44:59.824Z,15.33
2023-01-20T18:47:30.661Z,15.97
2023-01-20T18:50:01.320Z,15.87
2023-01-20T18:52:31.960Z,11.47
2023-01-20T18:55:02.742Z,14.90
2023-01-20T18:57:33.441Z,14.30
2023-01-20T19:00:04.944Z,13.10
2023-01-20T19:02:35.795Z,12.50
2023-01-20T19:05:07.712Z,13.60
2023-01-20T19:07:38.373Z,11.80
2023-01-20T19:10:10.746Z,12.87
2023-01-20T19:12:41.440Z,16.20
2023-01-20T19:15:12.881Z,13.00
2023-01-20T19:17:43.569Z,15.03
2023-01-20T19:20:16.097Z,14.37
2023-01-20T19:22:47.156Z,15.47
2023-01-20T19:25:18.126Z,13.80
2023-01-20T19:27:49.715Z,12.93
2023-01-20T19:30:21.604Z,11.93
2023-01-20T19:32:52.272Z,15.70
2023-01-20T19:35:23.335Z,15.27
2023-01-20T19:37:54.005Z,14.47
2023-01-20T19:40:25.117Z,15.07
2023-01-20T19:42:56.649Z,14.37
2023-01-20T19:45:40.373Z,14.60
2023-01-20T19:48:01.466Z,14.60
2023-01-20T19:50:32.491Z,16.00
2023-01-20T19:53:03.353Z,13.73
2023-01-20T19:55:34.223Z,15.07
2023-01-20T19:58:06.647Z,15.50
2023-01-20T20:00:37.493Z,16.30
2023-01-20T20:03:08.351Z,12.40
2023-01-20T20:05:40.964Z,13.47
2023-01-20T20:08:11.727Z,11.77
2023-01-20T20:10:45.176Z,13.37
2023-01-20T20:13:16.147Z,17.50
2023-01-20T20:15:47.217Z,13.93
2023-01-20T20:18:18.346Z,17.17
2023-01-20T20:20:49.254Z,15.27
2023-01-20T20:23:21.046Z,20.17
2023-01-20T20:25:56.034Z,19.07
2023-01-20T20:28:30.571Z,19.17
2023-01-20T20:31:07.693Z,17.13
2023-01-20T20:33:40.100Z,15.03
2023-01-20T20:36:12.725Z,13.70
2023-01-20T20:38:43.484Z,14.27
2023-01-20T20:41:14.139Z,15.77
2023-01-20T20:43:45.064Z,16.27
2023-01-20T20:46:17.780Z,13.13
2023-01-20T20:48:48.598Z,15.30
2023-01-20T20:51:19.683Z,14.60
2023-01-20T20:53:50.502Z,17.83
2023-01-20T20:56:21.262Z,15.13
2023-01-20T20:59:01.356Z,16.40
2023-01-20T21:01:25.242Z,16.90
2023-01-20T21:03:58.130Z,14.57
2023-01-20T21:06:29.397Z,18.23
2023-01-20T21:09:00.593Z,16.27
2023-01-20T21:11:31.575Z,14.43
2023-01-20T21:14:02.183Z,11.63
2023-01-20T21:16:33.120Z,9.63
2023-01-20T21:19:04.515Z,8.97
2023-01-20T21:21:35.082Z,11.60
2023-01-20T21:24:07.661Z,10.53
2023-01-20T21:26:38.407Z,9.60
2023-01-20T21:29:09.133Z,10.20
2023-01-20T21:31:40.050Z,10.33
2023-01-20T21:34:14.347Z,8.83
2023-01-20T21:36:45.023Z,10.67
2023-01-20T21:39:17.689Z,17.20
2023-01-20T21:41:48.340Z,15.87
2023-01-20T21:44:33.245Z,20.33
2023-01-20T21:47:05.961Z,15.53
2023-01-20T21:49:54.189Z,14.40
2023-01-20T21:52:45.550Z,16.40
2023-01-20T21:55:19.490Z,12.90
2023-01-20T21:57:51.563Z,14.60
2023-01-20T22:00:23.685Z,13.80
2023-01-20T22:02:54.263Z,13.63
2023-01-20T22:05:24.978Z,10.67
2023-01-20T22:07:55.718Z,12.57
2023-01-20T22:10:26.474Z,13.00
2023-01-20T22:12:57.660Z,11.97
2023-01-20T22:15:30.093Z,11.27
2023-01-20T22:18:00.852Z,13.43
2023-01-20T22:20:31.502Z,11.60
2023-01-20T22:23:03.225Z,11.77
2023-01-20T22:25:34.647Z,11.43
2023-01-20T22:28:05.496Z,9.73
2023-01-20T22:30:36.177Z,12.70
2023-01-20T22:33:06.791Z,11.37
2023-01-20T22:35:37.457Z,10.47
2023-01-20T22:38:08.210Z,12.17
2023-01-20T22:40:38.784Z,12.50
2023-01-20T22:43:09.441Z,10.57
2023-01-20T22:45:40.172Z,12.10
2023-01-20T22:48:10.844Z,12.13
2023-01-20T22:50:41.593Z,14.33
2023-01-20T22:53:12.352Z,13.40
2023-01-20T22:55:59.828Z,14.70
2023-01-20T22:58:18.279Z,15.73
2023-01-20T23:00:48.944Z,15.43
2023-01-20T23:03:20.017Z,18.33
2023-01-20T23:05:54.013Z,13.67
2023-01-20T23:08:24.599Z,19.63
2023-01-20T23:11:00.288Z,16.73
2023-01-20T23:13:31.291Z,13.07
2023-01-20T23:16:01.946Z,13.83
2023-01-20T23:18:33.057Z,21.63
2023-01-20T23:21:05.214Z,15.07
2023-01-20T23:23:36.296Z,17.00
2023-01-20T23:26:09.074Z,15.33
2023-01-20T23:28:39.751Z,15.23
2023-01-20T23:31:12.172Z,17.20
2023-01-20T23:33:43.889Z,12.90
2023-01-20T23:36:16.929Z,18.97
2023-01-20T23:38:48.176Z,15.90
2023-01-20T23:41:18.839Z,16.43
2023-01-20T23:43:49.516Z,14.60
2023-01-20T23:46:20.486Z,14.77
2023-01-20T23:48:51.298Z,19.47
2023-01-20T23:51:22.132Z,14.60
2023-01-20T23:53:52.956Z,17.13
2023-01-20T23:56:25.806Z,12.47
2023-01-20T23:58:56.420Z,12.10
